createdAt,value
2017-07-08T00:00:38.101Z,95
2017-07-08T00:01:40.172Z,96
2017-07-08T00:02:42.247Z,96
2017-07-08T00:03:44.309Z,96
2017-07-08T00:04:46.371Z,96
2017-07-08T00:05:48.439Z,96
2017-07-08T00:06:50.499Z,96
2017-07-08T00:07:52.564Z,96
2017-07-08T00:08:54.835Z,96
2017-07-08T00:09:56.900Z,96
2017-07-08T00:10:58.966Z,96
2017-07-08T00:12:01.027Z,96
2017-07-08T00:13:03.093Z,96
2017-07-08T00:14:05.167Z,96
2017-07-08T00:15:07.239Z,96
2017-07-08T00:16:09.641Z,96
2017-07-08T00:17:11.711Z,96
2017-07-08T00:18:13.783Z,96
2017-07-08T00:19:15.849Z,96
2017-07-08T00:20:17.907Z,96
2017-07-08T00:21:19.974Z,96
2017-07-08T00:22:22.037Z,96
2017-07-08T00:23:24.109Z,96
2017-07-08T00:24:26.165Z,96
2017-07-08T00:25:28.232Z,96
2017-07-08T00:26:30.292Z,96
2017-07-08T00:27:32.358Z,96
2017-07-08T00:28:34.424Z,96
2017-07-08T00:29:36.486Z,96
2017-07-08T00:30:38.555Z,96
2017-07-08T00:31:40.623Z,96
2017-07-08T00:32:42.677Z,96
2017-07-08T00:33:44.756Z,96
2017-07-08T00:34:46.817Z,96
2017-07-08T00:35:48.897Z,96
2017-07-08T00:36:50.965Z,96
2017-07-08T00:37:53.035Z,96
2017-07-08T00:38:55.096Z,96
2017-07-08T00:39:57.169Z,96
2017-07-08T00:40:59.233Z,96
2017-07-08T00:42:01.675Z,96
2017-07-08T00:43:03.734Z,96
2017-07-08T00:44:05.797Z,96
2017-07-08T00:45:07.860Z,96
2017-07-08T00:46:09.925Z,96
2017-07-08T00:47:11.991Z,96
2017-07-08T00:48:14.053Z,96
2017-07-08T00:49:16.126Z,96
2017-07-08T00:50:18.194Z,96
2017-07-08T00:51:20.250Z,96
2017-07-08T00:52:22.318Z,96
2017-07-08T00:53:24.389Z,96
2017-07-08T00:54:26.455Z,96
2017-07-08T00:55:28.518Z,96
2017-07-08T00:56:30.574Z,96
2017-07-08T00:57:32.645Z,96
2017-07-08T00:58:34.721Z,96
2017-07-08T00:59:36.783Z,96
2017-07-08T01:00:38.852Z,96
2017-07-08T01:01:40.911Z,96
2017-07-08T01:02:42.976Z,96
2017-07-08T01:03:45.041Z,97
2017-07-08T01:04:47.452Z,97
2017-07-08T01:05:49.530Z,97
2017-07-08T01:06:51.936Z,97
2017-07-08T01:07:53.989Z,97
2017-07-08T01:08:56.055Z,97
2017-07-08T01:09:58.116Z,97
2017-07-08T01:11:00.185Z,97
2017-07-08T01:12:02.264Z,97
2017-07-08T01:13:04.328Z,97
2017-07-08T01:14:06.397Z,97
2017-07-08T01:15:08.452Z,97
2017-07-08T01:16:10.523Z,97
2017-07-08T01:17:12.601Z,97
2017-07-08T01:18:14.662Z,97
2017-07-08T01:19:16.725Z,97
2017-07-08T01:20:18.791Z,97
2017-07-08T01:21:20.857Z,97
2017-07-08T01:22:22.917Z,97
2017-07-08T01:23:24.980Z,97
2017-07-08T01:24:27.400Z,97
2017-07-08T01:25:29.465Z,97
2017-07-08T01:26:31.528Z,97
2017-07-08T01:27:33.597Z,97
2017-07-08T01:28:35.654Z,97
2017-07-08T01:29:37.721Z,97
2017-07-08T01:30:39.790Z,97
2017-07-08T01:31:41.852Z,97
2017-07-08T01:32:43.930Z,97
2017-07-08T01:33:45.997Z,97
2017-07-08T01:34:48.061Z,97
2017-07-08T01:35:50.125Z,97
2017-07-08T01:36:52.182Z,97
2017-07-08T01:37:54.255Z,97
2017-07-08T01:38:56.325Z,97
2017-07-08T01:39:58.390Z,97
2017-07-08T01:41:00.467Z,97
2017-07-08T01:42:02.525Z,98
2017-07-08T01:43:04.932Z,98
2017-07-08T01:44:06.994Z,98
2017-07-08T01:45:09.053Z,98
2017-07-08T01:46:11.117Z,98
2017-07-08T01:47:13.185Z,98
2017-07-08T01:48:15.243Z,98
2017-07-08T01:49:17.312Z,98
2017-07-08T01:50:19.377Z,98
2017-07-08T01:51:21.439Z,98
2017-07-08T01:52:23.503Z,98
2017-07-08T01:53:25.573Z,97
2017-07-08T01:54:27.636Z,97
2017-07-08T01:55:29.693Z,97
2017-07-08T01:56:32.109Z,97
2017-07-08T01:57:34.176Z,97
2017-07-08T01:58:36.241Z,97
2017-07-08T01:59:38.316Z,97
2017-07-08T02:00:40.379Z,97
2017-07-08T02:01:42.437Z,97
2017-07-08T02:02:44.506Z,97
2017-07-08T02:03:46.565Z,97
2017-07-08T02:04:48.649Z,97
2017-07-08T02:05:50.712Z,97
2017-07-08T02:06:52.774Z,97
2017-07-08T02:07:54.847Z,97
2017-07-08T02:08:56.916Z,97
2017-07-08T02:09:58.985Z,97
2017-07-08T02:11:01.056Z,97
2017-07-08T02:12:03.115Z,97
2017-07-08T02:13:05.173Z,97
2017-07-08T02:14:07.251Z,97
2017-07-08T02:15:09.314Z,97
2017-07-08T02:16:11.375Z,97
2017-07-08T02:17:13.456Z,97
2017-07-08T02:18:15.515Z,97
2017-07-08T02:19:17.576Z,97
2017-07-08T02:20:19.636Z,97
2017-07-08T02:21:21.704Z,97
2017-07-08T02:22:23.766Z,97
2017-07-08T02:23:25.865Z,97
2017-07-08T02:24:27.890Z,97
2017-07-08T02:25:30.291Z,97
2017-07-08T02:26:32.356Z,97
2017-07-08T02:27:34.426Z,97
2017-07-08T02:28:36.498Z,97
2017-07-08T02:29:38.568Z,97
2017-07-08T02:30:40.630Z,97
2017-07-08T02:31:42.694Z,97
2017-07-08T02:32:44.761Z,97
2017-07-08T02:33:46.823Z,97
2017-07-08T02:34:48.892Z,97
2017-07-08T02:35:50.951Z,97
2017-07-08T02:36:53.019Z,97
2017-07-08T02:37:55.093Z,97
2017-07-08T02:38:57.157Z,97
2017-07-08T02:39:59.223Z,97
2017-07-08T02:41:01.295Z,97
2017-07-08T02:42:03.358Z,97
2017-07-08T02:43:05.419Z,97
2017-07-08T02:44:07.479Z,97
2017-07-08T02:45:09.555Z,97
2017-07-08T02:46:11.620Z,97
2017-07-08T02:47:13.679Z,97
2017-07-08T02:48:15.749Z,97
2017-07-08T02:49:17.822Z,97
2017-07-08T02:50:19.888Z,97
2017-07-08T02:51:21.957Z,97
2017-07-08T02:52:24.021Z,97
2017-07-08T02:53:26.089Z,97
2017-07-08T02:54:28.152Z,97
2017-07-08T02:55:30.213Z,97
2017-07-08T02:56:32.294Z,97
2017-07-08T02:57:34.355Z,97
2017-07-08T02:58:36.421Z,97
2017-07-08T02:59:38.488Z,97
2017-07-08T03:00:40.556Z,97
2017-07-08T03:01:42.625Z,97
2017-07-08T03:02:44.689Z,97
2017-07-08T03:03:46.755Z,97
2017-07-08T03:04:48.826Z,97
2017-07-08T03:05:50.893Z,97
2017-07-08T03:06:52.956Z,97
2017-07-08T03:07:55.017Z,97
2017-07-08T03:08:57.096Z,97
2017-07-08T03:09:59.164Z,97
2017-07-08T03:11:01.220Z,97
2017-07-08T03:12:03.286Z,97
2017-07-08T03:13:05.347Z,97
2017-07-08T03:14:07.417Z,97
2017-07-08T03:15:09.482Z,97
2017-07-08T03:16:11.547Z,97
2017-07-08T03:17:13.615Z,97
2017-07-08T03:18:15.673Z,97
2017-07-08T03:19:17.731Z,97
2017-07-08T03:20:20.147Z,97
2017-07-08T03:21:22.212Z,97
2017-07-08T03:22:24.281Z,97
2017-07-08T03:23:26.341Z,97
2017-07-08T03:24:28.405Z,97
2017-07-08T03:25:30.473Z,97
2017-07-08T03:26:32.544Z,97
2017-07-08T03:27:34.606Z,97
2017-07-08T03:28:36.680Z,97
2017-07-08T03:29:38.742Z,97
2017-07-08T03:30:40.811Z,97
2017-07-08T03:31:42.875Z,97
2017-07-08T03:32:44.938Z,97
2017-07-08T03:33:47.009Z,97
2017-07-08T03:34:49.078Z,97
2017-07-08T03:35:51.146Z,97
2017-07-08T03:36:53.233Z,97
2017-07-08T03:37:55.282Z,97
2017-07-08T03:38:57.345Z,97
2017-07-08T03:39:59.411Z,97
2017-07-08T03:41:01.479Z,97
2017-07-08T03:42:03.544Z,97
2017-07-08T03:43:05.606Z,97
2017-07-08T03:44:07.687Z,97
2017-07-08T03:45:09.748Z,97
2017-07-08T03:46:11.811Z,97
2017-07-08T03:47:13.877Z,97
2017-07-08T03:48:15.949Z,97
2017-07-08T03:49:18.017Z,97
2017-07-08T03:50:20.082Z,97
2017-07-08T03:51:22.137Z,97
2017-07-08T03:52:24.219Z,97
2017-07-08T03:53:26.623Z,97
2017-07-08T03:54:28.704Z,97
2017-07-08T03:55:30.764Z,97
2017-07-08T03:56:32.829Z,97
2017-07-08T03:57:34.894Z,97
2017-07-08T03:58:36.962Z,97
2017-07-08T03:59:39.034Z,97
2017-07-08T04:00:41.102Z,97
2017-07-08T04:01:43.166Z,97
2017-07-08T04:02:45.580Z,97
2017-07-08T04:03:47.647Z,97
2017-07-08T04:04:49.714Z,97
2017-07-08T04:05:51.782Z,97
2017-07-08T04:06:53.844Z,97
2017-07-08T04:07:55.910Z,97
2017-07-08T04:08:57.986Z,97
2017-07-08T04:10:00.044Z,97
2017-07-08T04:11:02.115Z,97
2017-07-08T04:12:04.548Z,97
2017-07-08T04:13:06.614Z,97
2017-07-08T04:14:08.675Z,97
2017-07-08T04:15:10.738Z,97
2017-07-08T04:16:12.810Z,97
2017-07-08T04:17:14.882Z,97
2017-07-08T04:18:16.956Z,97
2017-07-08T04:19:19.031Z,97
2017-07-08T04:20:21.092Z,97
2017-07-08T04:21:23.158Z,97
2017-07-08T04:22:25.222Z,97
2017-07-08T04:23:27.295Z,97
2017-07-08T04:24:29.359Z,97
2017-07-08T04:25:31.425Z,97
2017-07-08T04:26:33.499Z,97
2017-07-08T04:27:35.562Z,97
2017-07-08T04:28:37.630Z,97
2017-07-08T04:29:39.695Z,97
2017-07-08T04:30:41.764Z,97
2017-07-08T04:31:43.830Z,97
2017-07-08T04:32:45.893Z,97
2017-07-08T04:33:48.314Z,97
2017-07-08T04:34:50.380Z,97
2017-07-08T04:35:52.449Z,96
2017-07-08T04:36:54.525Z,96
2017-07-08T04:37:56.589Z,96
2017-07-08T04:38:58.661Z,96
2017-07-08T04:40:00.725Z,96
2017-07-08T04:41:02.794Z,96
2017-07-08T04:42:04.862Z,96
2017-07-08T04:43:06.932Z,96
2017-07-08T04:44:08.997Z,97
2017-07-08T04:45:11.055Z,97
2017-07-08T04:46:13.122Z,97
2017-07-08T04:47:15.190Z,97
2017-07-08T04:48:17.258Z,97
2017-07-08T04:49:19.324Z,97
2017-07-08T04:50:21.396Z,97
2017-07-08T04:51:23.463Z,96
2017-07-08T04:52:25.530Z,96
2017-07-08T04:53:27.598Z,96
2017-07-08T04:54:29.673Z,96
2017-07-08T04:55:31.748Z,96
2017-07-08T04:56:33.817Z,97
2017-07-08T04:57:35.887Z,97
2017-07-08T04:58:37.974Z,97
2017-07-08T04:59:40.033Z,97
2017-07-08T05:00:42.107Z,97
2017-07-08T05:01:44.173Z,96
2017-07-08T05:02:46.240Z,97
2017-07-08T05:03:48.306Z,96
2017-07-08T05:04:50.368Z,96
2017-07-08T05:05:52.439Z,97
2017-07-08T05:06:54.519Z,96
2017-07-08T05:07:56.582Z,96
2017-07-08T05:08:58.642Z,96
2017-07-08T05:10:00.713Z,96
2017-07-08T05:11:02.777Z,96
2017-07-08T05:12:04.845Z,96
2017-07-08T05:13:07.256Z,96
2017-07-08T05:14:09.334Z,97
2017-07-08T05:15:11.397Z,97
2017-07-08T05:16:13.459Z,97
2017-07-08T05:17:15.888Z,96
2017-07-08T05:18:17.961Z,96
2017-07-08T05:19:20.027Z,96
2017-07-08T05:20:22.096Z,96
2017-07-08T05:21:24.164Z,96
2017-07-08T05:22:26.241Z,96
2017-07-08T05:23:28.307Z,96
2017-07-08T05:24:30.385Z,96
2017-07-08T05:25:32.441Z,96
2017-07-08T05:26:34.519Z,96
2017-07-08T05:27:36.581Z,96
2017-07-08T05:28:38.643Z,96
2017-07-08T05:29:40.715Z,96
2017-07-08T05:30:42.797Z,96
2017-07-08T05:31:44.867Z,96
2017-07-08T05:32:46.936Z,96
2017-07-08T05:33:49.001Z,96
2017-07-08T05:34:51.068Z,96
2017-07-08T05:35:53.134Z,96
2017-07-08T05:36:55.204Z,96
2017-07-08T05:37:57.281Z,96
2017-07-08T05:38:59.355Z,96
2017-07-08T05:40:01.419Z,96
2017-07-08T05:41:03.489Z,96
2017-07-08T05:42:05.562Z,96
2017-07-08T05:43:07.632Z,96
2017-07-08T05:44:09.706Z,96
2017-07-08T05:45:11.774Z,96
2017-07-08T05:46:13.847Z,96
2017-07-08T05:47:15.906Z,96
2017-07-08T05:48:17.984Z,96
2017-07-08T05:49:20.068Z,96
2017-07-08T05:50:22.140Z,96
2017-07-08T05:51:24.215Z,96
2017-07-08T05:52:26.292Z,96
2017-07-08T05:53:28.699Z,96
2017-07-08T05:54:30.775Z,96
2017-07-08T05:55:32.851Z,96
2017-07-08T05:56:34.914Z,96
2017-07-08T05:57:36.984Z,96
2017-07-08T05:58:39.072Z,96
2017-07-08T05:59:41.138Z,96
2017-07-08T06:00:43.203Z,96
2017-07-08T06:01:45.271Z,96
2017-07-08T06:02:47.337Z,96
2017-07-08T06:03:49.403Z,95
2017-07-08T06:04:51.470Z,95
2017-07-08T06:05:53.548Z,95
2017-07-08T06:06:55.624Z,95
2017-07-08T06:07:57.692Z,95
2017-07-08T06:08:59.759Z,95
2017-07-08T06:10:01.838Z,95
2017-07-08T06:11:03.915Z,95
2017-07-08T06:12:05.993Z,95
2017-07-08T06:13:08.062Z,95
2017-07-08T06:14:10.134Z,95
2017-07-08T06:15:12.199Z,95
2017-07-08T06:16:14.264Z,95
2017-07-08T06:17:16.332Z,95
2017-07-08T06:18:18.404Z,95
2017-07-08T06:19:20.477Z,95
2017-07-08T06:20:22.540Z,94
2017-07-08T06:21:24.615Z,94
2017-07-08T06:22:26.683Z,94
2017-07-08T06:23:28.747Z,94
2017-07-08T06:24:30.813Z,93
2017-07-08T06:25:32.888Z,94
2017-07-08T06:26:34.962Z,94
2017-07-08T06:27:37.029Z,94
2017-07-08T06:28:39.099Z,93
2017-07-08T06:29:41.182Z,93
2017-07-08T06:30:43.244Z,93
2017-07-08T06:31:58.077Z,93
2017-07-08T06:33:00.138Z,93
2017-07-08T06:34:02.202Z,93
2017-07-08T06:35:04.267Z,93
2017-07-08T06:36:06.383Z,92
2017-07-08T06:37:08.466Z,91
2017-07-08T06:38:10.882Z,91
2017-07-08T06:39:12.955Z,92
2017-07-08T06:40:15.021Z,92
2017-07-08T06:41:17.096Z,91
2017-07-08T06:42:19.170Z,91
2017-07-08T06:43:21.240Z,92
2017-07-08T06:44:23.318Z,91
2017-07-08T06:45:25.391Z,91
2017-07-08T06:46:27.452Z,92
2017-07-08T06:47:29.532Z,91
2017-07-08T06:48:31.949Z,91
2017-07-08T06:49:34.018Z,90
2017-07-08T06:50:36.090Z,90
2017-07-08T06:51:38.160Z,90
2017-07-08T06:52:40.230Z,90
2017-07-08T06:53:42.294Z,90
2017-07-08T06:54:44.373Z,91
2017-07-08T06:55:46.457Z,92
2017-07-08T06:56:48.531Z,92
2017-07-08T06:57:50.607Z,92
2017-07-08T06:58:52.680Z,91
2017-07-08T06:59:54.749Z,91
2017-07-08T07:00:56.827Z,91
2017-07-08T07:01:58.891Z,91
2017-07-08T07:03:00.972Z,91
2017-07-08T07:04:03.046Z,92
2017-07-08T07:05:05.112Z,91
2017-07-08T07:06:07.190Z,91
2017-07-08T07:07:09.260Z,90
2017-07-08T07:08:11.330Z,91
2017-07-08T07:09:13.423Z,91
2017-07-08T07:10:15.497Z,91
2017-07-08T07:11:17.568Z,90
2017-07-08T07:12:19.651Z,90
2017-07-08T07:13:21.734Z,90
2017-07-08T07:14:23.801Z,90
2017-07-08T07:15:25.883Z,90
2017-07-08T07:16:27.960Z,90
2017-07-08T07:17:30.034Z,90
2017-07-08T07:18:32.460Z,90
2017-07-08T07:19:34.533Z,90
2017-07-08T07:20:36.963Z,91
2017-07-08T07:21:39.025Z,89
2017-07-08T07:22:41.110Z,89
2017-07-08T07:23:43.189Z,89
2017-07-08T07:24:45.282Z,90
2017-07-08T07:25:47.362Z,90
2017-07-08T07:26:49.439Z,90
2017-07-08T07:27:51.523Z,91
2017-07-08T07:28:53.597Z,90
2017-07-08T07:29:55.668Z,91
2017-07-08T07:30:58.080Z,90
2017-07-08T07:32:00.157Z,90
2017-07-08T07:33:02.236Z,90
2017-07-08T07:34:04.303Z,90
2017-07-08T07:35:06.380Z,89
2017-07-08T07:36:08.468Z,89
2017-07-08T07:37:10.533Z,89
2017-07-08T07:38:12.613Z,89
2017-07-08T07:39:14.691Z,89
2017-07-08T07:40:16.763Z,89
2017-07-08T07:41:18.838Z,90
2017-07-08T07:42:20.907Z,90
2017-07-08T07:43:23.344Z,89
2017-07-08T07:44:25.768Z,88
2017-07-08T07:45:27.842Z,89
2017-07-08T07:46:29.934Z,89
2017-07-08T07:47:32.023Z,88
2017-07-08T07:48:34.105Z,87
2017-07-08T07:49:36.197Z,88
2017-07-08T07:50:38.274Z,88
2017-07-08T07:51:40.361Z,88
2017-07-08T07:52:42.448Z,89
2017-07-08T07:53:44.524Z,88
2017-07-08T07:54:46.588Z,88
2017-07-08T07:55:48.671Z,88
2017-07-08T07:56:50.751Z,89
2017-07-08T07:57:52.846Z,90
2017-07-08T07:58:54.922Z,90
2017-07-08T07:59:57.000Z,90
2017-07-08T08:00:59.087Z,89
2017-07-08T08:02:01.154Z,88
2017-07-08T08:03:03.237Z,86
2017-07-08T08:04:05.327Z,85
2017-07-08T08:05:07.403Z,85
2017-07-08T08:06:09.476Z,84
2017-07-08T08:07:11.554Z,84
2017-07-08T08:08:13.645Z,84
2017-07-08T08:09:15.724Z,84
2017-07-08T08:10:18.144Z,84
2017-07-08T08:11:20.216Z,84
2017-07-08T08:12:22.294Z,85
2017-07-08T08:13:24.376Z,84
2017-07-08T08:14:26.446Z,84
2017-07-08T08:15:28.523Z,85
2017-07-08T08:16:30.612Z,84
2017-07-08T08:17:32.675Z,82
2017-07-08T08:18:34.754Z,82
2017-07-08T08:19:36.821Z,82
2017-07-08T08:20:38.891Z,82
2017-07-08T08:21:40.963Z,84
2017-07-08T08:22:43.040Z,83
2017-07-08T08:23:45.122Z,81
2017-07-08T08:24:47.207Z,80
2017-07-08T08:25:49.271Z,81
2017-07-08T08:26:51.352Z,81
2017-07-08T08:27:53.438Z,82
2017-07-08T08:28:55.509Z,82
2017-07-08T08:29:57.591Z,78
2017-07-08T08:31:00.011Z,80
2017-07-08T08:32:02.082Z,81
2017-07-08T08:33:04.163Z,77
2017-07-08T08:34:06.254Z,79
2017-07-08T08:35:08.318Z,76
2017-07-08T08:36:10.408Z,78
2017-07-08T08:37:12.488Z,77
2017-07-08T08:38:14.568Z,77
2017-07-08T08:39:16.651Z,77
2017-07-08T08:40:18.729Z,77
2017-07-08T08:41:20.815Z,77
2017-07-08T08:42:22.885Z,79
2017-07-08T08:43:24.969Z,78
2017-07-08T08:44:27.071Z,76
2017-07-08T08:45:29.141Z,78
2017-07-08T08:46:31.210Z,75
2017-07-08T08:47:33.291Z,76
2017-07-08T08:48:35.363Z,76
2017-07-08T08:49:37.439Z,71
2017-07-08T08:50:39.515Z,73
2017-07-08T08:51:41.603Z,75
2017-07-08T08:52:43.681Z,72
2017-07-08T08:53:45.760Z,72
2017-07-08T08:54:47.834Z,72
2017-07-08T08:55:49.910Z,73
2017-07-08T08:56:51.988Z,75
2017-07-08T08:57:54.068Z,70
2017-07-08T08:58:56.150Z,72
2017-07-08T08:59:58.286Z,73
2017-07-08T09:01:00.306Z,70
2017-07-08T09:02:02.380Z,69
2017-07-08T09:03:04.460Z,71
2017-07-08T09:04:06.881Z,71
2017-07-08T09:05:08.953Z,70
2017-07-08T09:06:11.373Z,68
2017-07-08T09:07:13.799Z,69
2017-07-08T09:08:15.867Z,69
2017-07-08T09:09:17.951Z,70
2017-07-08T09:10:20.036Z,69
2017-07-08T09:11:22.116Z,71
2017-07-08T09:12:24.194Z,73
2017-07-08T09:13:26.272Z,74
2017-07-08T09:14:28.357Z,75
2017-07-08T09:15:30.430Z,75
2017-07-08T09:16:32.510Z,74
2017-07-08T09:17:34.609Z,76
2017-07-08T09:18:36.685Z,73
2017-07-08T09:19:38.780Z,73
2017-07-08T09:20:40.872Z,70
2017-07-08T09:21:43.001Z,69
2017-07-08T09:22:45.096Z,70
2017-07-08T09:23:47.188Z,65
2017-07-08T09:24:49.281Z,69
2017-07-08T09:25:51.373Z,70
2017-07-08T09:26:53.454Z,67
2017-07-08T09:27:55.526Z,70
2017-07-08T09:28:57.604Z,69
2017-07-08T09:29:59.695Z,69
2017-07-08T09:31:01.774Z,71
2017-07-08T09:32:03.861Z,72
2017-07-08T09:33:05.948Z,69
2017-07-08T09:34:08.038Z,72
2017-07-08T09:35:10.177Z,70
2017-07-08T09:36:12.273Z,71
2017-07-08T09:37:14.370Z,68
2017-07-08T09:38:16.477Z,69
2017-07-08T09:39:18.555Z,68
2017-07-08T09:40:20.702Z,70
2017-07-08T09:41:22.830Z,65
2017-07-08T09:42:24.930Z,62
2017-07-08T09:43:27.004Z,63
2017-07-08T09:44:29.103Z,65
2017-07-08T09:45:31.185Z,62
2017-07-08T09:46:33.278Z,66
2017-07-08T09:47:35.367Z,63
2017-07-08T09:48:37.454Z,64
2017-07-08T09:49:39.528Z,62
2017-07-08T09:50:41.632Z,66
2017-07-08T09:51:43.711Z,64
2017-07-08T09:52:45.798Z,65
2017-07-08T09:53:47.882Z,69
2017-07-08T09:54:49.974Z,64
2017-07-08T09:55:52.060Z,62
2017-07-08T09:56:54.154Z,66
2017-07-08T09:57:56.235Z,60
2017-07-08T09:58:58.674Z,61
2017-07-08T10:00:00.749Z,66
2017-07-08T10:01:02.842Z,66
2017-07-08T10:02:05.287Z,62
2017-07-08T10:03:07.360Z,68
2017-07-08T10:04:09.457Z,62
2017-07-08T10:05:11.545Z,64
2017-07-08T10:06:13.628Z,65
2017-07-08T10:07:15.715Z,65
2017-07-08T10:08:17.800Z,64
2017-07-08T10:09:19.906Z,66
2017-07-08T10:10:21.995Z,62
2017-07-08T10:11:24.084Z,63
2017-07-08T10:12:26.182Z,66
2017-07-08T10:13:28.283Z,61
2017-07-08T10:14:30.362Z,64
2017-07-08T10:15:32.446Z,64
2017-07-08T10:16:34.526Z,61
2017-07-08T10:17:36.613Z,65
2017-07-08T10:18:38.706Z,62
2017-07-08T10:19:40.783Z,63
2017-07-08T10:20:42.872Z,64
2017-07-08T10:21:44.963Z,66
2017-07-08T10:22:47.050Z,62
2017-07-08T10:23:49.156Z,63
2017-07-08T10:24:51.218Z,62
2017-07-08T10:25:53.295Z,63
2017-07-08T10:26:55.390Z,62
2017-07-08T10:27:57.494Z,62
2017-07-08T10:28:59.570Z,63
2017-07-08T10:30:01.669Z,62
2017-07-08T10:31:03.757Z,65
2017-07-08T10:32:05.858Z,68
2017-07-08T10:33:07.938Z,64
2017-07-08T10:34:10.028Z,63
2017-07-08T10:35:12.117Z,62
2017-07-08T10:36:14.201Z,62
2017-07-08T10:37:16.626Z,61
2017-07-08T10:38:18.721Z,63
2017-07-08T10:39:20.805Z,64
2017-07-08T10:40:22.893Z,59
2017-07-08T10:41:24.993Z,65
2017-07-08T10:42:27.082Z,61
2017-07-08T10:43:29.191Z,63
2017-07-08T10:44:31.279Z,64
2017-07-08T10:45:33.384Z,60
2017-07-08T10:46:35.469Z,60
2017-07-08T10:47:37.555Z,62
2017-07-08T10:48:39.642Z,60
2017-07-08T10:49:41.737Z,62
2017-07-08T10:50:43.828Z,60
2017-07-08T10:51:45.925Z,60
2017-07-08T10:52:48.007Z,64
2017-07-08T10:53:50.110Z,64
2017-07-08T10:54:52.184Z,62
2017-07-08T10:55:54.292Z,63
2017-07-08T10:56:56.376Z,62
2017-07-08T10:57:58.474Z,65
2017-07-08T10:59:00.557Z,67
2017-07-08T11:00:02.660Z,62
2017-07-08T11:01:04.755Z,61
2017-07-08T11:02:06.840Z,62
2017-07-08T11:03:08.925Z,64
2017-07-08T11:04:10.991Z,64
2017-07-08T11:05:13.431Z,65
2017-07-08T11:06:15.520Z,60
2017-07-08T11:07:17.605Z,60
2017-07-08T11:08:19.683Z,62
2017-07-08T11:09:21.770Z,64
2017-07-08T11:10:23.852Z,65
2017-07-08T11:11:25.935Z,60
2017-07-08T11:12:28.022Z,61
2017-07-08T11:13:30.122Z,63
2017-07-08T11:14:32.201Z,64
2017-07-08T11:15:34.290Z,63
2017-07-08T11:16:36.371Z,64
2017-07-08T11:17:38.460Z,64
2017-07-08T11:18:40.551Z,65
2017-07-08T11:19:42.640Z,63
2017-07-08T11:20:44.729Z,63
2017-07-08T11:21:46.815Z,66
2017-07-08T11:22:48.907Z,61
2017-07-08T11:23:50.994Z,61
2017-07-08T11:24:53.076Z,64
2017-07-08T11:25:55.520Z,59
2017-07-08T11:26:57.604Z,60
2017-07-08T11:27:59.687Z,61
2017-07-08T11:29:01.779Z,59
2017-07-08T11:30:03.867Z,59
2017-07-08T11:31:05.945Z,61
2017-07-08T11:32:08.023Z,61
2017-07-08T11:33:10.111Z,62
2017-07-08T11:34:12.203Z,60
2017-07-08T11:35:14.273Z,62
2017-07-08T11:36:16.729Z,63
2017-07-08T11:37:18.840Z,60
2017-07-08T11:38:20.926Z,60
2017-07-08T11:39:23.019Z,56
2017-07-08T11:40:25.105Z,58
2017-07-08T11:41:27.215Z,57
2017-07-08T11:42:29.308Z,61
2017-07-08T11:43:31.406Z,62
2017-07-08T11:44:33.481Z,57
2017-07-08T11:45:35.574Z,57
2017-07-08T11:46:37.672Z,59
2017-07-08T11:47:39.774Z,59
2017-07-08T11:48:41.872Z,54
2017-07-08T11:49:43.954Z,55
2017-07-08T11:50:46.052Z,58
2017-07-08T11:51:48.135Z,54
2017-07-08T11:52:50.219Z,54
2017-07-08T11:53:52.311Z,57
2017-07-08T11:54:54.405Z,56
2017-07-08T11:55:56.496Z,55
2017-07-08T11:56:58.592Z,57
2017-07-08T11:58:00.710Z,61
2017-07-08T11:59:03.635Z,55
2017-07-08T12:00:05.768Z,61
2017-07-08T12:01:07.868Z,55
2017-07-08T12:02:09.955Z,56
2017-07-08T12:03:12.031Z,56
2017-07-08T12:04:14.117Z,58
2017-07-08T12:05:16.213Z,56
2017-07-08T12:06:18.312Z,59
2017-07-08T12:07:20.422Z,55
2017-07-08T12:08:22.525Z,57
2017-07-08T12:09:24.899Z,55
2017-07-08T12:10:26.980Z,55
2017-07-08T12:11:29.071Z,58
2017-07-08T12:12:31.167Z,56
2017-07-08T12:13:33.257Z,55
2017-07-08T12:14:35.430Z,56
2017-07-08T12:15:37.853Z,57
2017-07-08T12:16:39.942Z,59
2017-07-08T12:17:42.052Z,57
2017-07-08T12:18:44.131Z,58
2017-07-08T12:19:46.222Z,60
2017-07-08T12:20:48.309Z,62
2017-07-08T12:21:50.384Z,62
2017-07-08T12:22:52.469Z,62
2017-07-08T12:23:54.553Z,64
2017-07-08T12:24:56.626Z,62
2017-07-08T12:25:58.719Z,66
2017-07-08T12:27:00.800Z,61
2017-07-08T12:28:02.899Z,60
2017-07-08T12:29:04.990Z,61
2017-07-08T12:30:07.078Z,61
2017-07-08T12:31:09.177Z,60
2017-07-08T12:32:11.247Z,62
2017-07-08T12:33:13.342Z,59
2017-07-08T12:34:15.425Z,62
2017-07-08T12:35:17.858Z,62
2017-07-08T12:36:19.951Z,58
2017-07-08T12:37:22.035Z,62
2017-07-08T12:38:24.117Z,61
2017-07-08T12:39:26.209Z,62
2017-07-08T12:40:28.301Z,59
2017-07-08T12:41:30.391Z,60
2017-07-08T12:42:32.471Z,59
2017-07-08T12:43:34.562Z,60
2017-07-08T12:44:36.648Z,59
2017-07-08T12:45:38.725Z,63
2017-07-08T12:46:40.812Z,58
2017-07-08T12:47:42.901Z,57
2017-07-08T12:48:44.994Z,55
2017-07-08T12:49:47.091Z,55
2017-07-08T12:50:49.170Z,56
2017-07-08T12:51:51.264Z,56
2017-07-08T12:52:53.353Z,58
2017-07-08T12:53:55.442Z,56
2017-07-08T12:54:57.539Z,56
2017-07-08T12:55:59.616Z,56
2017-07-08T12:57:01.716Z,57
2017-07-08T12:58:03.818Z,60
2017-07-08T12:59:05.894Z,58
2017-07-08T13:00:07.986Z,57
2017-07-08T13:01:10.074Z,56
2017-07-08T13:02:12.170Z,58
2017-07-08T13:03:14.261Z,58
2017-07-08T13:04:16.348Z,55
2017-07-08T13:05:18.446Z,56
2017-07-08T13:06:20.526Z,56
2017-07-08T13:07:22.598Z,55
2017-07-08T13:08:24.683Z,54
2017-07-08T13:09:26.790Z,53
2017-07-08T13:10:28.870Z,55
2017-07-08T13:11:30.965Z,58
2017-07-08T13:12:33.054Z,54
2017-07-08T13:13:35.170Z,56
2017-07-08T13:14:37.257Z,56
2017-07-08T13:15:39.340Z,56
2017-07-08T13:16:41.455Z,58
2017-07-08T13:17:43.869Z,59
2017-07-08T13:18:45.959Z,55
2017-07-08T13:19:48.058Z,58
2017-07-08T13:20:50.372Z,54
2017-07-08T13:21:52.461Z,55
2017-07-08T13:22:54.558Z,54
2017-07-08T13:23:56.660Z,56
2017-07-08T13:24:58.745Z,57
2017-07-08T13:26:00.815Z,53
2017-07-08T13:27:02.911Z,52
2017-07-08T13:28:05.007Z,52
2017-07-08T13:29:07.092Z,54
2017-07-08T13:30:09.185Z,53
2017-07-08T13:31:11.256Z,54
2017-07-08T13:32:13.345Z,56
2017-07-08T13:33:15.441Z,52
2017-07-08T13:34:17.581Z,55
2017-07-08T13:35:19.759Z,52
2017-07-08T13:36:22.207Z,56
2017-07-08T13:37:24.304Z,54
2017-07-08T13:38:26.402Z,55
2017-07-08T13:39:28.484Z,52
2017-07-08T13:40:30.589Z,51
2017-07-08T13:41:32.676Z,53
2017-07-08T13:42:34.769Z,55
2017-07-08T13:43:36.858Z,54
2017-07-08T13:44:38.941Z,55
2017-07-08T13:45:41.029Z,58
2017-07-08T13:46:43.126Z,57
2017-07-08T13:47:45.214Z,59
2017-07-08T13:48:47.305Z,56
2017-07-08T13:49:49.730Z,57
2017-07-08T13:50:51.811Z,55
2017-07-08T13:51:53.908Z,57
2017-07-08T13:52:55.991Z,58
2017-07-08T13:53:58.131Z,57
2017-07-08T13:55:00.250Z,58
2017-07-08T13:56:02.335Z,57
2017-07-08T13:57:04.428Z,56
2017-07-08T13:58:06.584Z,55
2017-07-08T13:59:08.698Z,55
2017-07-08T14:00:11.030Z,57
2017-07-08T14:01:13.234Z,57
2017-07-08T14:02:15.336Z,57
2017-07-08T14:03:17.417Z,55
2017-07-08T14:04:19.499Z,52
2017-07-08T14:05:21.592Z,54
2017-07-08T14:06:23.672Z,54
2017-07-08T14:07:25.776Z,55
2017-07-08T14:08:27.864Z,56
2017-07-08T14:09:29.955Z,56
2017-07-08T14:10:32.045Z,54
2017-07-08T14:11:34.141Z,55
2017-07-08T14:12:36.226Z,57
2017-07-08T14:13:38.304Z,55
2017-07-08T14:14:40.392Z,55
2017-07-08T14:15:42.832Z,54
2017-07-08T14:16:44.931Z,54
2017-07-08T14:17:47.018Z,56
2017-07-08T14:18:49.119Z,55
2017-07-08T14:19:51.210Z,55
2017-07-08T14:20:53.299Z,57
2017-07-08T14:21:55.410Z,55
2017-07-08T14:22:57.513Z,55
2017-07-08T14:23:59.606Z,56
2017-07-08T14:25:01.717Z,59
2017-07-08T14:26:03.798Z,58
2017-07-08T14:27:05.885Z,60
2017-07-08T14:28:07.980Z,59
2017-07-08T14:29:10.066Z,60
2017-07-08T14:30:12.163Z,60
2017-07-08T14:31:14.255Z,59
2017-07-08T14:32:16.329Z,60
2017-07-08T14:33:18.417Z,56
2017-07-08T14:34:20.504Z,58
2017-07-08T14:35:22.601Z,58
2017-07-08T14:36:24.692Z,58
2017-07-08T14:37:26.780Z,57
2017-07-08T14:38:28.866Z,57
2017-07-08T14:39:30.947Z,57
2017-07-08T14:40:33.029Z,57
2017-07-08T14:41:35.124Z,57
2017-07-08T14:42:37.215Z,60
2017-07-08T14:43:39.301Z,59
2017-07-08T14:44:41.396Z,59
2017-07-08T14:45:43.479Z,58